createdAt,value
2018-08-13T00:02:03.614Z,20.52
2018-08-13T00:04:31.075Z,20.47
2018-08-13T00:06:58.459Z,20.40
2018-08-13T00:09:31.384Z,20.32
2018-08-13T00:11:58.915Z,20.32
2018-08-13T00:14:26.397Z,20.32
2018-08-13T00:16:53.723Z,20.26
2018-08-13T00:19:21.193Z,20.23
2018-08-13T00:21:49.160Z,20.17
2018-08-13T00:24:16.505Z,20.13
2018-08-13T00:26:44.111Z,20.02
2018-08-13T00:29:11.578Z,20.02
2018-08-13T00:31:39.063Z,19.99
2018-08-13T00:34:06.492Z,19.98
2018-08-13T00:36:33.836Z,19.94
2018-08-13T00:39:01.339Z,19.90
2018-08-13T00:41:29.123Z,19.84
2018-08-13T00:43:56.533Z,19.81
2018-08-13T00:46:23.883Z,19.78
2018-08-13T00:48:51.160Z,19.78
2018-08-13T00:51:18.507Z,19.75
2018-08-13T00:53:46.055Z,19.71
2018-08-13T00:56:13.371Z,19.71
2018-08-13T00:58:40.777Z,19.69
2018-08-13T01:01:08.124Z,19.66
2018-08-13T01:03:35.506Z,19.66
2018-08-13T01:06:02.838Z,19.63
2018-08-13T01:08:30.140Z,19.63
2018-08-13T01:10:57.574Z,19.61
2018-08-13T01:13:24.936Z,19.60
2018-08-13T01:15:53.019Z,19.57
2018-08-13T01:18:20.478Z,19.54
2018-08-13T01:20:47.975Z,19.53
2018-08-13T01:23:15.284Z,19.52
2018-08-13T01:25:42.677Z,19.49
2018-08-13T01:28:10.065Z,19.49
2018-08-13T01:30:37.479Z,19.46
2018-08-13T01:33:05.957Z,19.46
2018-08-13T01:35:33.261Z,19.46
2018-08-13T01:38:00.609Z,19.44
2018-08-13T01:40:28.032Z,19.43
2018-08-13T01:42:55.473Z,19.42
2018-08-13T01:45:22.798Z,19.40
2018-08-13T01:47:50.078Z,19.38
2018-08-13T01:50:17.531Z,19.38
2018-08-13T01:52:44.811Z,19.34
2018-08-13T01:55:12.161Z,19.34
2018-08-13T01:57:39.501Z,19.33
2018-08-13T02:00:12.077Z,19.32
2018-08-13T02:02:39.388Z,19.32
2018-08-13T02:05:06.927Z,19.26
2018-08-13T02:07:34.290Z,19.20
2018-08-13T02:10:01.572Z,19.19
2018-08-13T02:12:28.850Z,19.17
2018-08-13T02:14:56.263Z,19.16
2018-08-13T02:17:23.834Z,19.14
2018-08-13T02:19:51.312Z,19.11
2018-08-13T02:22:18.750Z,19.05
2018-08-13T02:24:46.295Z,19.03
2018-08-13T02:27:13.893Z,19.02
2018-08-13T02:29:41.373Z,19.00
2018-08-13T02:32:08.692Z,19.01
2018-08-13T02:34:36.094Z,19.01
2018-08-13T02:37:03.501Z,19.00
2018-08-13T02:39:30.887Z,18.97
2018-08-13T02:41:58.252Z,18.94
2018-08-13T02:44:25.909Z,18.95
2018-08-13T02:46:53.505Z,18.98
2018-08-13T02:49:20.935Z,18.95
2018-08-13T02:51:48.350Z,18.94
2018-08-13T02:54:15.962Z,18.96
2018-08-13T02:56:43.506Z,18.95
2018-08-13T02:59:11.059Z,18.93
2018-08-13T03:01:39.155Z,18.91
2018-08-13T03:04:06.497Z,18.87
2018-08-13T03:06:33.938Z,18.84
2018-08-13T03:09:01.235Z,18.84
2018-08-13T03:11:28.574Z,18.80
2018-08-13T03:13:55.953Z,18.79
2018-08-13T03:16:24.356Z,18.77
2018-08-13T03:18:52.331Z,18.71
2018-08-13T03:21:19.780Z,18.71
2018-08-13T03:23:47.549Z,18.72
2018-08-13T03:26:14.835Z,18.70
2018-08-13T03:28:42.154Z,18.67
2018-08-13T03:31:09.471Z,18.65
2018-08-13T03:33:37.702Z,18.65
2018-08-13T03:36:04.963Z,18.64
2018-08-13T03:38:33.049Z,18.63
2018-08-13T03:41:01.283Z,18.63
2018-08-13T03:43:28.825Z,18.59
2018-08-13T03:45:56.121Z,18.56
2018-08-13T03:48:23.433Z,18.55
2018-08-13T03:50:50.701Z,18.54
2018-08-13T03:53:18.057Z,18.55
2018-08-13T03:55:45.362Z,18.52
2018-08-13T03:58:12.776Z,18.51
2018-08-13T04:00:40.040Z,18.50
2018-08-13T04:03:07.492Z,18.49
2018-08-13T04:05:34.909Z,18.48
2018-08-13T04:08:02.322Z,18.48
2018-08-13T04:10:30.038Z,18.50
2018-08-13T04:12:57.459Z,18.50
2018-08-13T04:15:24.737Z,18.48
2018-08-13T04:17:52.028Z,18.45
2018-08-13T04:20:19.372Z,18.45
2018-08-13T04:22:46.738Z,18.46
2018-08-13T04:25:14.123Z,18.45
2018-08-13T04:27:41.480Z,18.50
2018-08-13T04:30:12.405Z,18.49
2018-08-13T04:32:39.882Z,18.48
2018-08-13T04:35:07.145Z,18.45
2018-08-13T04:37:34.512Z,18.45
2018-08-13T04:40:01.747Z,18.48
2018-08-13T04:42:29.019Z,18.48
2018-08-13T04:44:56.261Z,18.46
2018-08-13T04:47:24.150Z,18.47
2018-08-13T04:49:51.397Z,18.50
2018-08-13T04:52:18.664Z,18.54
2018-08-13T04:54:46.648Z,18.47
2018-08-13T04:57:13.998Z,18.52
2018-08-13T04:59:41.308Z,18.53
2018-08-13T05:02:08.689Z,18.51
2018-08-13T05:04:35.985Z,18.52
2018-08-13T05:07:03.554Z,18.54
2018-08-13T05:09:30.826Z,18.56
2018-08-13T05:11:58.686Z,18.58
2018-08-13T05:14:26.773Z,18.58
2018-08-13T05:16:54.112Z,18.60
2018-08-13T05:19:21.373Z,18.64
2018-08-13T05:21:49.318Z,18.67
2018-08-13T05:24:17.346Z,18.69
2018-08-13T05:26:45.054Z,18.72
2018-08-13T05:29:12.785Z,18.76
2018-08-13T05:31:40.205Z,18.74
2018-08-13T05:34:08.134Z,18.77
2018-08-13T05:36:35.385Z,18.78
2018-08-13T05:39:03.380Z,18.78
2018-08-13T05:41:30.627Z,18.79
2018-08-13T05:43:58.046Z,18.81
2018-08-13T05:46:25.345Z,18.81
2018-08-13T05:48:52.929Z,18.79
2018-08-13T05:51:20.329Z,18.79
2018-08-13T05:53:47.592Z,18.81
2018-08-13T05:56:14.887Z,18.84
2018-08-13T05:58:42.273Z,18.91
2018-08-13T06:01:09.580Z,18.93
2018-08-13T06:03:36.916Z,18.99
2018-08-13T06:06:04.210Z,19.04
2018-08-13T06:08:31.841Z,19.10
2018-08-13T06:10:59.309Z,19.16
2018-08-13T06:13:26.809Z,19.24
2018-08-13T06:15:54.052Z,19.32
2018-08-13T06:18:21.521Z,19.38
2018-08-13T06:20:48.863Z,19.40
2018-08-13T06:23:16.258Z,19.45
2018-08-13T06:25:43.582Z,19.53
2018-08-13T06:28:11.121Z,19.62
2018-08-13T06:30:38.430Z,19.70
2018-08-13T06:33:05.952Z,19.77
2018-08-13T06:35:33.296Z,19.82
2018-08-13T06:38:00.752Z,19.93
2018-08-13T06:40:28.291Z,19.96
2018-08-13T06:42:55.574Z,19.90
2018-08-13T06:45:22.840Z,19.92
2018-08-13T06:47:50.570Z,20.03
2018-08-13T06:50:17.918Z,20.14
2018-08-13T06:52:45.382Z,20.11
2018-08-13T06:55:12.783Z,20.29
2018-08-13T06:57:45.071Z,20.28
2018-08-13T07:00:13.495Z,20.23
2018-08-13T07:02:40.869Z,20.32
2018-08-13T07:05:09.295Z,20.32
2018-08-13T07:07:37.354Z,20.30
2018-08-13T07:10:08.551Z,20.24
2018-08-13T07:12:35.884Z,20.19
2018-08-13T07:15:03.677Z,20.30
2018-08-13T07:17:31.068Z,20.28
2018-08-13T07:19:58.423Z,20.38
2018-08-13T07:22:25.842Z,20.53
2018-08-13T07:24:53.322Z,20.49
2018-08-13T07:27:20.673Z,20.68
2018-08-13T07:29:48.159Z,20.88
2018-08-13T07:32:15.763Z,21.01
2018-08-13T07:34:43.117Z,21.09
2018-08-13T07:37:10.551Z,21.18
2018-08-13T07:39:37.947Z,21.23
2018-08-13T07:42:05.471Z,21.13
2018-08-13T07:44:33.082Z,21.17
2018-08-13T07:47:00.589Z,21.24
2018-08-13T07:49:27.868Z,21.16
2018-08-13T07:51:55.154Z,21.13
2018-08-13T07:54:22.512Z,21.02
2018-08-13T07:56:50.176Z,21.04
2018-08-13T07:59:17.628Z,20.96
2018-08-13T08:01:45.090Z,20.99
2018-08-13T08:04:12.516Z,20.96
2018-08-13T08:06:40.569Z,20.96
2018-08-13T08:09:09.377Z,21.00
2018-08-13T08:11:37.040Z,20.97
2018-08-13T08:14:04.998Z,20.87
2018-08-13T08:16:32.481Z,20.90
2018-08-13T08:18:59.914Z,20.79
2018-08-13T08:21:27.355Z,20.78
2018-08-13T08:23:54.750Z,20.65
2018-08-13T08:26:22.241Z,20.54
2018-08-13T08:28:50.977Z,20.64
2018-08-13T08:31:18.516Z,20.60
2018-08-13T08:33:46.015Z,20.51
2018-08-13T08:36:14.649Z,20.45
2018-08-13T08:38:43.613Z,20.66
2018-08-13T08:41:11.106Z,20.72
2018-08-13T08:43:38.604Z,20.75
2018-08-13T08:46:06.208Z,20.75
2018-08-13T08:48:33.570Z,20.74
2018-08-13T08:51:00.935Z,20.74
2018-08-13T08:53:28.347Z,20.64
2018-08-13T08:55:55.786Z,20.47
2018-08-13T08:58:23.347Z,20.54
2018-08-13T09:00:50.942Z,20.74
2018-08-13T09:03:18.274Z,20.58
2018-08-13T09:05:45.756Z,20.59
2018-08-13T09:08:13.143Z,20.72
2018-08-13T09:10:40.566Z,20.90
2018-08-13T09:13:07.904Z,20.93
2018-08-13T09:15:35.442Z,20.79
2018-08-13T09:18:14.093Z,20.78
2018-08-13T09:20:52.894Z,20.91
2018-08-13T09:23:31.647Z,20.75
2018-08-13T09:26:10.521Z,21.00
2018-08-13T09:28:49.392Z,20.91
2018-08-13T09:31:28.295Z,20.91
2018-08-13T09:34:07.907Z,21.03
2018-08-13T09:36:35.369Z,21.22
2018-08-13T09:39:03.361Z,21.44
2018-08-13T09:41:31.553Z,21.78
2018-08-13T09:43:59.353Z,21.84
2018-08-13T09:46:26.807Z,22.05
2018-08-13T09:48:54.332Z,22.23
2018-08-13T09:51:21.729Z,22.43
2018-08-13T09:53:49.359Z,22.19
2018-08-13T09:56:16.736Z,22.28
2018-08-13T09:58:44.029Z,22.29
2018-08-13T10:01:12.112Z,22.63
2018-08-13T10:03:40.138Z,22.53
2018-08-13T10:06:07.593Z,22.68
2018-08-13T10:08:35.001Z,22.79
2018-08-13T10:11:02.376Z,23.41
2018-08-13T10:13:29.973Z,23.58
2018-08-13T10:15:57.404Z,23.39
2018-08-13T10:18:24.782Z,23.82
2018-08-13T10:20:52.166Z,25.45
2018-08-13T10:23:19.495Z,27.81
2018-08-13T10:25:47.154Z,31.30
2018-08-13T10:28:15.449Z,29.22
2018-08-13T10:30:42.857Z,25.65
2018-08-13T10:33:10.213Z,24.74
2018-08-13T10:35:37.533Z,24.47
2018-08-13T10:38:04.947Z,23.77
2018-08-13T10:40:32.341Z,23.21
2018-08-13T10:42:59.766Z,22.95
2018-08-13T10:45:27.279Z,25.10
2018-08-13T10:47:55.538Z,24.08
2018-08-13T10:50:22.848Z,23.96
2018-08-13T10:52:50.237Z,24.38
2018-08-13T10:55:17.573Z,23.73
2018-08-13T10:57:44.944Z,23.65
2018-08-13T11:00:14.619Z,22.88
2018-08-13T11:02:42.006Z,22.90
2018-08-13T11:05:10.786Z,22.86
2018-08-13T11:07:38.228Z,23.00
2018-08-13T11:10:07.702Z,23.05
2018-08-13T11:12:35.557Z,23.72
2018-08-13T11:15:03.069Z,24.45
2018-08-13T11:17:30.578Z,23.75
2018-08-13T11:19:58.057Z,23.18
2018-08-13T11:22:25.412Z,22.71
2018-08-13T11:24:52.812Z,22.00
2018-08-13T11:27:20.269Z,21.28
2018-08-13T11:29:47.682Z,20.95
2018-08-13T11:32:15.160Z,21.02
2018-08-13T11:34:42.622Z,21.35
2018-08-13T11:37:10.348Z,22.55
2018-08-13T11:39:37.714Z,20.93
2018-08-13T11:42:05.436Z,21.61
2018-08-13T11:44:33.481Z,21.79
2018-08-13T11:47:00.977Z,21.98
2018-08-13T11:49:28.452Z,21.78
2018-08-13T11:51:56.010Z,21.33
2018-08-13T11:54:24.374Z,21.25
2018-08-13T11:56:51.876Z,21.62
2018-08-13T11:59:19.298Z,21.74
2018-08-13T12:01:47.610Z,21.61
2018-08-13T12:04:15.017Z,21.73
2018-08-13T12:06:42.404Z,21.47
2018-08-13T12:09:12.206Z,21.42
2018-08-13T12:11:41.808Z,21.94
2018-08-13T12:14:09.518Z,21.71
2018-08-13T12:16:37.152Z,22.05
2018-08-13T12:19:05.132Z,22.44
2018-08-13T12:21:32.625Z,22.02
2018-08-13T12:24:00.247Z,21.95
2018-08-13T12:26:27.724Z,22.00
2018-08-13T12:28:55.087Z,22.30
2018-08-13T12:31:22.457Z,22.25
2018-08-13T12:33:49.884Z,22.27
2018-08-13T12:36:17.402Z,22.46
2018-08-13T12:38:44.864Z,22.39
2018-08-13T12:41:12.360Z,22.56
2018-08-13T12:43:39.641Z,23.72
2018-08-13T12:46:07.242Z,24.62
2018-08-13T12:48:34.811Z,24.92
2018-08-13T12:51:02.203Z,25.04
2018-08-13T12:53:30.494Z,26.94
2018-08-13T12:55:58.170Z,27.06
2018-08-13T12:58:25.706Z,26.68
2018-08-13T13:00:57.098Z,26.40
2018-08-13T13:03:24.516Z,26.15
2018-08-13T13:05:51.851Z,26.91
2018-08-13T13:08:19.178Z,25.80
2018-08-13T13:10:46.772Z,25.39
2018-08-13T13:13:14.209Z,25.13
2018-08-13T13:15:42.516Z,24.35
2018-08-13T13:18:10.824Z,24.09
2018-08-13T13:20:38.484Z,23.65
2018-08-13T13:23:05.826Z,23.18
2018-08-13T13:25:33.255Z,23.91
2018-08-13T13:28:00.687Z,24.14
2018-08-13T13:30:28.375Z,23.32
2018-08-13T13:32:56.712Z,23.12
2018-08-13T13:35:25.124Z,23.11
2018-08-13T13:37:52.929Z,22.20
2018-08-13T13:40:20.405Z,22.89
2018-08-13T13:42:47.817Z,24.06
2018-08-13T13:45:16.605Z,24.14
2018-08-13T13:47:44.289Z,23.97
2018-08-13T13:50:14.805Z,24.35
2018-08-13T13:52:42.397Z,24.23
2018-08-13T13:55:10.240Z,23.58
2018-08-13T13:57:37.619Z,24.14
2018-08-13T14:00:10.142Z,24.22
2018-08-13T14:02:37.700Z,23.83
2018-08-13T14:05:05.481Z,24.18
2018-08-13T14:07:33.226Z,23.80
2018-08-13T14:10:00.893Z,24.71
2018-08-13T14:12:28.273Z,25.30
2018-08-13T14:14:56.359Z,25.69
2018-08-13T14:17:24.285Z,26.64
2018-08-13T14:19:51.789Z,26.69
2018-08-13T14:22:19.325Z,25.46
2018-08-13T14:24:47.045Z,24.60
2018-08-13T14:27:14.543Z,24.11
2018-08-13T14:29:42.843Z,24.01
2018-08-13T14:32:10.295Z,24.02
2018-08-13T14:34:38.344Z,24.02
2018-08-13T14:37:05.948Z,23.26
2018-08-13T14:39:33.470Z,23.25
2018-08-13T14:42:01.005Z,22.97
2018-08-13T14:44:29.241Z,22.85
2018-08-13T14:46:57.296Z,23.16
2018-08-13T14:49:24.817Z,23.23
2018-08-13T14:51:52.474Z,22.96
2018-08-13T14:54:19.869Z,23.03
2018-08-13T14:56:47.413Z,22.99
2018-08-13T14:59:14.794Z,23.35
2018-08-13T15:01:42.392Z,22.89
2018-08-13T15:04:10.203Z,23.08
2018-08-13T15:06:37.823Z,23.31
2018-08-13T15:09:12.700Z,23.17
2018-08-13T15:11:41.322Z,23.00
2018-08-13T15:14:10.972Z,23.19
2018-08-13T15:16:38.851Z,22.84
2018-08-13T15:19:06.760Z,23.66
2018-08-13T15:21:34.263Z,23.03
2018-08-13T15:24:02.136Z,22.97
2018-08-13T15:26:29.647Z,23.41
2018-08-13T15:28:57.352Z,23.13
2018-08-13T15:31:25.079Z,23.28
2018-08-13T15:33:52.765Z,23.13
2018-08-13T15:36:20.555Z,22.86
2018-08-13T15:38:48.189Z,22.43
2018-08-13T15:41:15.733Z,22.47
2018-08-13T15:43:43.068Z,22.96
2018-08-13T15:46:10.543Z,23.12
2018-08-13T15:48:37.895Z,22.55
2018-08-13T15:51:05.397Z,22.79
2018-08-13T15:53:33.032Z,22.53
2018-08-13T15:56:00.609Z,22.12
2018-08-13T15:58:28.133Z,22.61
2018-08-13T16:00:55.484Z,22.28
2018-08-13T16:03:23.132Z,22.18
2018-08-13T16:05:50.756Z,21.98
2018-08-13T16:08:19.194Z,22.16
2018-08-13T16:10:46.601Z,22.11
2018-08-13T16:13:15.153Z,22.24
2018-08-13T16:15:42.655Z,21.80
2018-08-13T16:18:10.371Z,21.95
2018-08-13T16:20:37.962Z,22.13
2018-08-13T16:23:06.100Z,22.06
2018-08-13T16:25:34.402Z,22.15
2018-08-13T16:28:02.414Z,21.96
2018-08-13T16:30:30.929Z,21.88
2018-08-13T16:32:58.434Z,21.98
2018-08-13T16:35:26.019Z,21.98
2018-08-13T16:37:53.846Z,22.26
2018-08-13T16:40:21.463Z,22.15
2018-08-13T16:42:49.481Z,21.98
2018-08-13T16:45:19.122Z,21.87
2018-08-13T16:47:47.298Z,21.98
2018-08-13T16:50:20.515Z,22.13
2018-08-13T16:52:51.637Z,21.96
2018-08-13T16:55:19.641Z,22.03
2018-08-13T16:57:47.425Z,22.10
2018-08-13T17:00:20.890Z,21.83
2018-08-13T17:02:48.529Z,21.97
2018-08-13T17:05:16.145Z,21.96
2018-08-13T17:07:43.579Z,22.11
2018-08-13T17:10:15.497Z,21.70
2018-08-13T17:12:43.508Z,21.65
2018-08-13T17:15:11.534Z,21.69
2018-08-13T17:17:39.009Z,21.63
2018-08-13T17:20:08.809Z,21.33
2018-08-13T17:22:37.107Z,21.46
2018-08-13T17:25:07.193Z,21.25
2018-08-13T17:27:34.833Z,21.22
2018-08-13T17:30:03.191Z,21.29
2018-08-13T17:32:30.525Z,21.33
2018-08-13T17:34:57.904Z,21.26
2018-08-13T17:37:25.918Z,21.00
2018-08-13T17:39:53.247Z,21.07
2018-08-13T17:42:20.934Z,21.21
2018-08-13T17:44:48.286Z,21.35
2018-08-13T17:47:15.992Z,21.19
2018-08-13T17:49:43.463Z,21.43
2018-08-13T17:52:11.124Z,21.71
2018-08-13T17:54:39.144Z,21.45
2018-08-13T17:57:08.361Z,21.51
2018-08-13T17:59:36.977Z,21.54
2018-08-13T18:02:04.264Z,21.28
2018-08-13T18:04:32.646Z,21.18
2018-08-13T18:07:00.143Z,21.14
2018-08-13T18:09:28.446Z,21.05
2018-08-13T18:11:56.223Z,21.15
2018-08-13T18:14:23.694Z,21.16
2018-08-13T18:16:51.040Z,21.10
2018-08-13T18:19:18.615Z,20.79
2018-08-13T18:21:46.157Z,20.88
2018-08-13T18:24:13.593Z,20.81
2018-08-13T18:26:41.400Z,20.88
2018-08-13T18:29:09.232Z,20.69
2018-08-13T18:31:36.908Z,20.87
2018-08-13T18:34:04.633Z,20.97
2018-08-13T18:36:32.289Z,21.08
2018-08-13T18:39:00.013Z,21.15
2018-08-13T18:41:27.503Z,20.99
2018-08-13T18:43:55.132Z,20.78
2018-08-13T18:46:22.843Z,20.73
2018-08-13T18:48:50.596Z,20.67
2018-08-13T18:51:17.921Z,20.65
2018-08-13T18:53:45.708Z,20.54
2018-08-13T18:56:12.973Z,20.46
2018-08-13T18:58:40.308Z,20.48
2018-08-13T19:01:08.243Z,20.34
2018-08-13T19:03:35.551Z,20.45
2018-08-13T19:06:03.368Z,20.56
2018-08-13T19:08:30.798Z,20.50
2018-08-13T19:10:58.396Z,20.51
2018-08-13T19:13:25.982Z,20.43
2018-08-13T19:15:53.620Z,20.44
2018-08-13T19:18:21.075Z,20.26
2018-08-13T19:20:49.147Z,20.36
2018-08-13T19:23:17.458Z,20.36
2018-08-13T19:25:44.979Z,20.41
2018-08-13T19:28:12.358Z,20.47
2018-08-13T19:30:39.687Z,20.36
2018-08-13T19:33:07.514Z,20.42
2018-08-13T19:35:35.149Z,20.50
2018-08-13T19:38:02.659Z,20.46
2018-08-13T19:40:30.109Z,20.35
2018-08-13T19:42:57.561Z,20.40
2018-08-13T19:45:26.299Z,20.36
2018-08-13T19:47:54.145Z,20.51
2018-08-13T19:50:21.688Z,20.56
2018-08-13T19:52:49.618Z,20.60
2018-08-13T19:55:17.581Z,20.56
2018-08-13T19:57:45.070Z,20.49
2018-08-13T20:00:19.906Z,20.40
2018-08-13T20:02:47.806Z,20.41
2018-08-13T20:05:15.884Z,20.54
2018-08-13T20:07:43.584Z,20.29
2018-08-13T20:10:14.645Z,20.22
2018-08-13T20:12:43.154Z,20.33
2018-08-13T20:15:11.108Z,20.38
2018-08-13T20:17:38.521Z,20.40
2018-08-13T20:20:08.365Z,20.41
2018-08-13T20:22:36.336Z,20.51
2018-08-13T20:25:04.016Z,20.34
2018-08-13T20:27:31.518Z,20.50
2018-08-13T20:32:33.907Z,20.63
2018-08-13T20:35:01.323Z,20.40
2018-08-13T20:37:29.682Z,20.34
2018-08-13T20:39:57.064Z,20.17
2018-08-13T20:42:25.095Z,20.30
2018-08-13T20:44:52.670Z,20.21
2018-08-13T20:47:20.243Z,20.09
2018-08-13T20:49:47.658Z,20.14
2018-08-13T20:52:14.954Z,20.16
2018-08-13T20:54:42.285Z,20.10
2018-08-13T20:57:09.912Z,20.07
2018-08-13T20:59:37.240Z,20.11
2018-08-13T21:02:05.867Z,20.11
2018-08-13T21:04:33.184Z,20.02
2018-08-13T21:07:00.464Z,20.07
2018-08-13T21:09:27.735Z,20.13
2018-08-13T21:11:55.042Z,20.02
2018-08-13T21:14:22.356Z,19.98
2018-08-13T21:16:49.707Z,20.01
2018-08-13T21:19:17.084Z,20.05
2018-08-13T21:21:44.545Z,20.15
2018-08-13T21:24:12.028Z,20.10
2018-08-13T21:26:39.518Z,20.07
2018-08-13T21:29:06.827Z,20.14
2018-08-13T21:31:34.135Z,20.07
2018-08-13T21:34:01.591Z,20.14
2018-08-13T21:36:28.941Z,20.10
2018-08-13T21:38:56.397Z,20.10
2018-08-13T21:41:23.731Z,20.17
2018-08-13T21:43:51.089Z,20.07
2018-08-13T21:46:18.512Z,20.18
2018-08-13T21:48:46.002Z,20.07
2018-08-13T21:51:13.717Z,20.13
2018-08-13T21:53:41.127Z,20.17
2018-08-13T21:56:08.616Z,20.11
2018-08-13T21:58:37.201Z,20.15
2018-08-13T22:01:10.278Z,20.17
2018-08-13T22:03:39.934Z,20.17
2018-08-13T22:06:07.229Z,20.26
2018-08-13T22:08:34.986Z,20.14
2018-08-13T22:11:02.269Z,20.28
2018-08-13T22:13:29.573Z,20.31
2018-08-13T22:15:56.945Z,20.22
2018-08-13T22:18:25.233Z,20.13
2018-08-13T22:20:53.047Z,20.15
2018-08-13T22:23:20.395Z,20.16
2018-08-13T22:25:47.742Z,20.12
2018-08-13T22:28:16.766Z,20.26
2018-08-13T22:30:44.250Z,20.26
2018-08-13T22:33:11.979Z,20.22
2018-08-13T22:35:39.460Z,20.10
2018-08-13T22:38:07.433Z,20.23
2018-08-13T22:40:35.511Z,20.18
2018-08-13T22:43:02.902Z,20.23
2018-08-13T22:45:30.186Z,20.22
2018-08-13T22:47:57.553Z,20.14
2018-08-13T22:50:25.612Z,20.11
2018-08-13T22:52:52.919Z,20.07
2018-08-13T22:55:20.322Z,20.05
2018-08-13T22:57:48.035Z,20.07
2018-08-13T23:00:17.307Z,20.15
2018-08-13T23:02:45.378Z,20.18
2018-08-13T23:05:15.396Z,20.08
2018-08-13T23:07:42.665Z,20.06
2018-08-13T23:10:12.182Z,20.04
2018-08-13T23:12:39.473Z,20.15
2018-08-13T23:15:09.707Z,19.97
2018-08-13T23:17:37.205Z,20.07
2018-08-13T23:20:06.565Z,20.17
2018-08-13T23:23:02.935Z,20.17
2018-08-13T23:25:32.430Z,20.11
2018-08-13T23:28:01.531Z,20.10
2018-08-13T23:30:29.100Z,20.10
2018-08-13T23:32:57.151Z,20.07
2018-08-13T23:35:25.165Z,20.33
2018-08-13T23:37:52.905Z,20.32
2018-08-13T23:40:20.451Z,20.30
2018-08-13T23:42:47.770Z,20.33
2018-08-13T23:45:16.304Z,20.14
2018-08-13T23:47:43.758Z,20.14
2018-08-13T23:50:15.664Z,20.29
2018-08-13T23:52:42.977Z,20.25
2018-08-13T23:55:15.954Z,20.23
2018-08-13T23:57:43.280Z,20.14
